Time;durP1;ratioP1;P1;durP2;ratioP2;P2;SDS_P1;SDS_P2;PMS_P1;PMS_P2;Temp;Humidity;BMP_temperature;BMP_pressure;BME280_temperature;BME280_humidity;BME280_pressure;Samples;Min_cycle;Max_cycle;Signal;HPM_P1;HPM_P2
2022/06/21 00:02:34;;;;;;;3.65;2.77;;;;;;;13.60;78.37;98278.98;2209523;79;20976;-79
2022/06/21 00:05:35;;;;;;;4.47;2.35;;;;;;;13.54;78.89;98279.91;2210155;79;21031;-78
2022/06/21 00:08:35;;;;;;;3.67;2.55;;;;;;;13.46;79.28;98280.85;2210176;79;20976;-78
2022/06/21 00:11:36;;;;;;;4.12;2.50;;;;;;;13.34;80.05;98285.32;2210188;79;21292;-79
2022/06/21 00:14:36;;;;;;;4.92;3.90;;;;;;;13.29;80.53;98285.80;2210450;79;20979;-79
2022/06/21 00:17:36;;;;;;;2.92;2.67;;;;;;;13.23;80.82;98289.77;2210168;79;20964;-78
2022/06/21 00:20:37;;;;;;;5.35;2.08;;;;;;;13.19;80.81;98291.98;2209671;79;21887;-79
2022/06/21 00:23:37;;;;;;;4.22;2.15;;;;;;;13.16;81.37;98290.67;2208617;79;20979;-79
2022/06/21 00:26:38;;;;;;;3.47;2.45;;;;;;;13.14;81.77;98301.60;2208928;79;20956;-78
2022/06/21 00:29:38;;;;;;;4.37;2.17;;;;;;;13.12;81.60;98289.39;2208709;79;21418;-78
2022/06/21 00:32:38;;;;;;;4.90;2.70;;;;;;;13.08;81.97;98292.48;2207559;81;21039;-78
2022/06/21 00:35:39;;;;;;;4.17;2.60;;;;;;;13.04;81.80;98296.00;2208700;81;21211;-79
2022/06/21 00:38:39;;;;;;;5.45;2.40;;;;;;;12.99;81.86;98299.05;2209986;79;21344;-78
2022/06/21 00:41:40;;;;;;;4.55;2.42;;;;;;;12.92;81.88;98299.97;2235016;79;20991;-80
2022/06/21 00:44:40;;;;;;;2.90;2.42;;;;;;;12.85;81.87;98304.38;2236950;79;20940;-79
2022/06/21 00:47:41;;;;;;;3.05;2.27;;;;;;;12.80;81.79;98303.97;2236465;79;20986;-80
2022/06/21 00:50:41;;;;;;;3.52;2.80;;;;;;;12.79;81.84;98309.65;2237006;79;21299;-78
2022/06/21 00:53:42;;;;;;;5.80;3.10;;;;;;;12.78;81.97;98312.28;2236863;79;20939;-80
2022/06/21 00:56:42;;;;;;;4.10;2.85;;;;;;;12.74;81.60;98312.30;2236962;80;20932;-79
2022/06/21 00:59:42;;;;;;;4.25;2.80;;;;;;;12.68;81.72;98314.95;2237276;79;20924;-79
2022/06/21 01:02:43;;;;;;;6.08;2.92;;;;;;;12.63;81.74;98306.68;2237134;79;21308;-79
2022/06/21 01:05:43;;;;;;;3.45;2.75;;;;;;;12.56;81.79;98308.45;2237015;79;20944;-78
2022/06/21 01:08:43;;;;;;;6.08;3.47;;;;;;;12.51;81.47;98308.92;2237213;79;20908;-79
2022/06/21 01:11:44;;;;;;;3.40;3.10;;;;;;;12.44;81.84;98305.45;2237034;79;20935;-79
2022/06/21 01:14:44;;;;;;;3.75;3.20;;;;;;;12.39;82.00;98312.89;2237417;79;20884;-78
2022/06/21 01:17:45;;;;;;;4.30;3.20;;;;;;;12.39;82.24;98308.53;2237465;79;20904;-78
2022/06/21 01:20:45;;;;;;;5.07;3.03;;;;;;;12.39;82.33;98310.28;2237659;79;21327;-79
2022/06/21 01:23:45;;;;;;;5.37;3.30;;;;;;;12.34;82.24;98305.50;2237082;79;20916;-79
2022/06/21 01:26:46;;;;;;;5.63;3.40;;;;;;;12.35;82.58;98304.19;2236762;79;20975;-79
2022/06/21 01:29:47;;;;;;;5.87;3.22;;;;;;;12.40;82.65;98301.55;2236966;79;20968;-78
2022/06/21 01:32:47;;;;;;;4.20;3.27;;;;;;;12.46;82.67;98300.66;2237597;79;20971;-79
2022/06/21 01:35:47;;;;;;;4.30;3.25;;;;;;;12.53;82.70;98298.44;2237325;79;20932;-79
2022/06/21 01:38:48;;;;;;;3.60;3.30;;;;;;;12.54;82.55;98294.94;2237240;79;20952;-79
2022/06/21 01:41:48;;;;;;;6.85;3.60;;;;;;;12.54;82.49;98292.33;2237328;79;21000;-78
2022/06/21 01:44:49;;;;;;;4.08;3.12;;;;;;;12.51;82.34;98277.50;2237317;79;20877;-78
2022/06/21 01:47:49;;;;;;;4.28;3.95;;;;;;;12.50;82.60;98267.91;2236965;79;20904;-78
2022/06/21 01:50:49;;;;;;;5.67;3.93;;;;;;;12.46;82.61;98267.50;2237330;79;20940;-79
2022/06/21 01:53:50;;;;;;;4.70;3.58;;;;;;;12.45;83.19;98273.61;2237389;79;21339;-80
2022/06/21 01:56:50;;;;;;;6.07;3.70;;;;;;;12.40;82.88;98278.00;2236756;79;20959;-79
2022/06/21 01:59:51;;;;;;;6.90;4.50;;;;;;;12.35;83.06;98275.84;2236682;79;20951;-78
2022/06/21 02:02:51;;;;;;;5.17;4.10;;;;;;;12.31;84.21;98278.03;2237236;79;21024;-79
2022/06/21 02:05:51;;;;;;;4.17;3.60;;;;;;;12.29;83.71;98281.97;2236914;79;20912;-78
2022/06/21 02:08:52;;;;;;;6.55;4.05;;;;;;;12.29;83.74;98291.13;2237532;79;20916;-79
2022/06/21 02:11:52;;;;;;;5.50;4.30;;;;;;;12.31;84.02;98289.81;2237599;79;20893;-79
2022/06/21 02:14:53;;;;;;;5.93;4.13;;;;;;;12.34;83.99;98297.21;2237780;79;20924;-79
2022/06/21 02:17:53;;;;;;;5.70;4.60;;;;;;;12.43;84.09;98302.41;2237547;79;20920;-78
2022/06/21 02:20:53;;;;;;;11.65;4.67;;;;;;;12.52;84.18;98305.42;2237230;79;20912;-78
2022/06/21 02:23:54;;;;;;;6.43;5.20;;;;;;;12.59;84.50;98299.28;2237132;79;20943;-78
2022/06/21 02:26:54;;;;;;;5.50;5.10;;;;;;;12.63;83.90;98298.39;2237177;79;20964;-78
2022/06/21 02:29:55;;;;;;;11.63;6.08;;;;;;;12.61;84.10;98296.22;2237093;79;20963;-82
2022/06/21 02:32:55;;;;;;;7.37;5.80;;;;;;;13.12;91.56;98291.58;2236860;79;20964;-82
2022/06/21 02:35:56;;;;;;;15.35;5.50;;;;;;;13.98;86.44;98293.06;2238718;79;20991;-80
2022/06/21 02:38:56;;;;;;;10.30;5.42;;;;;;;14.69;91.44;98286.55;2238954;80;20908;-83
2022/06/21 02:41:57;;;;;;;5.95;5.42;;;;;;;15.37;87.96;98275.48;2214365;79;20929;-83
2022/06/21 02:44:57;;;;;;;7.42;4.72;;;;;;;15.96;82.12;98269.69;2211719;79;20960;-82
2022/06/21 02:47:58;;;;;;;7.53;4.85;;;;;;;16.40;81.76;98271.00;2211651;79;20953;-82
2022/06/21 02:50:58;;;;;;;8.40;5.08;;;;;;;16.58;79.63;98278.13;2211619;79;20961;-82
2022/06/21 02:53:58;;;;;;;7.12;4.83;;;;;;;17.19;79.65;98278.52;2211633;79;21060;-84
2022/06/21 02:56:59;;;;;;;6.85;4.60;;;;;;;17.50;77.29;98279.13;2211682;79;20925;-81
2022/06/21 02:59:59;;;;;;;9.78;4.72;;;;;;;17.61;75.95;98286.78;2211503;79;20973;-82
2022/06/21 03:03:00;;;;;;;5.67;5.15;;;;;;;17.61;72.95;98288.97;2210953;79;21023;-83
2022/06/21 03:06:00;;;;;;;6.35;5.28;;;;;;;17.76;73.44;98288.61;2211592;79;21007;-83
2022/06/21 03:09:00;;;;;;;7.95;5.28;;;;;;;17.88;73.45;98291.38;2210955;79;21400;-82
2022/06/21 03:12:01;;;;;;;10.98;5.37;;;;;;;17.34;69.75;98286.97;2211618;79;20930;-82
2022/06/21 03:15:02;;;;;;;6.87;4.40;;;;;;;17.22;70.28;98284.18;2211653;79;20913;-82
2022/06/21 03:18:02;;;;;;;7.30;4.60;;;;;;;17.32;69.61;98284.83;2211066;79;20921;-82
2022/06/21 03:21:03;;;;;;;5.83;4.33;;;;;;;17.60;69.27;98287.69;2210514;79;20932;-83
2022/06/21 03:24:03;;;;;;;8.50;4.20;;;;;;;17.34;68.73;98292.25;2209325;79;20917;-81
2022/06/21 03:27:03;;;;;;;9.38;4.87;;;;;;;17.09;68.69;98288.88;2211401;79;20897;-82
2022/06/21 03:30:03;;;;;;;5.87;4.28;;;;;;;16.96;70.47;98291.38;2210912;79;20972;-82
2022/06/21 03:33:04;;;;;;;5.42;4.87;;;;;;;17.19;70.84;98294.80;2210474;79;21000;-81
2022/06/21 03:36:04;;;;;;;10.38;4.55;;;;;;;17.51;69.53;98298.02;2210061;79;21015;-81
2022/06/21 03:39:04;;;;;;;11.73;5.15;;;;;;;17.31;68.17;98302.42;2209760;81;20929;-82
2022/06/21 03:42:05;;;;;;;8.25;6.20;;;;;;;16.73;68.52;98301.55;2209728;79;20965;-81
2022/06/21 03:45:05;;;;;;;13.58;6.00;;;;;;;16.83;69.53;98295.18;2209225;79;20925;-82
2022/06/21 03:48:06;;;;;;;8.60;6.08;;;;;;;17.01;69.32;98303.13;2208526;79;20941;-81
2022/06/21 03:51:06;;;;;;;7.17;5.45;;;;;;;17.19;68.51;98298.76;2209406;79;20936;-81
2022/06/21 03:54:06;;;;;;;7.03;4.80;;;;;;;17.44;68.80;98297.30;2208838;79;21379;-80
2022/06/21 03:57:07;;;;;;;354.35;30.55;;;;;;;17.66;66.35;98292.81;2208056;79;20983;-81
2022/06/21 04:00:07;;;;;;;296.23;26.90;;;;;;;17.37;68.77;98289.58;2208735;79;20980;-81
2022/06/21 04:03:08;;;;;;;156.75;15.13;;;;;;;16.99;65.49;98300.53;2208010;79;21026;-80
2022/06/21 04:06:08;;;;;;;121.67;13.15;;;;;;;17.12;65.48;98303.30;2208093;79;20992;-81
2022/06/21 04:09:09;;;;;;;101.50;11.15;;;;;;;17.15;65.59;98299.28;2208783;79;21379;-81
2022/06/21 04:12:09;;;;;;;70.90;9.40;;;;;;;17.05;65.75;98290.30;2208245;79;20964;-81
2022/06/21 04:15:09;;;;;;;37.30;7.15;;;;;;;17.42;65.47;98294.28;2207626;79;20944;-80
2022/06/21 04:18:11;;;;;;;103.85;12.33;;;;;;;17.87;65.33;98292.29;2208635;79;21044;-82
2022/06/21 04:21:10;;;;;;;50.40;7.37;;;;;;;18.14;64.29;98291.55;2207863;81;20960;-81
2022/06/21 04:24:11;;;;;;;24.12;5.90;;;;;;;18.03;62.80;98302.00;2207892;79;20976;-81
2022/06/21 04:27:11;;;;;;;93.42;12.03;;;;;;;17.86;63.72;98302.89;2208707;79;20956;-81
2022/06/21 04:30:11;;;;;;;35.85;7.17;;;;;;;18.20;63.34;98303.72;2208128;79;21418;-80
2022/06/21 04:33:12;;;;;;;22.93;5.10;;;;;;;17.04;63.18;98299.11;2208867;79;20980;-81
2022/06/21 04:36:12;;;;;;;14.45;4.83;;;;;;;16.75;63.56;98302.39;2207995;79;21008;-80
2022/06/21 04:39:13;;;;;;;32.73;6.55;;;;;;;16.48;63.44;98307.30;2208097;79;20928;-82
2022/06/21 04:42:13;;;;;;;57.70;7.28;;;;;;;16.34;65.37;98300.55;2230611;79;20987;-82
2022/06/21 04:45:13;;;;;;;15.35;4.42;;;;;;;16.62;64.56;98302.20;2234510;79;20983;-82
2022/06/21 04:48:14;;;;;;;7.40;4.20;;;;;;;16.68;63.05;98296.83;2235186;79;20971;-81
2022/06/21 04:51:14;;;;;;;13.10;4.05;;;;;;;16.49;63.23;98311.67;2235140;79;20932;-81
2022/06/21 04:54:15;;;;;;;12.40;4.10;;;;;;;16.56;64.62;98309.78;2234379;79;21031;-79
2022/06/21 04:57:15;;;;;;;10.30;5.60;;;;;;;16.49;63.03;98310.80;2233538;79;20947;-82
2022/06/21 05:00:15;;;;;;;6.42;3.80;;;;;;;16.51;63.39;98308.56;2235649;79;20947;-80
2022/06/21 05:03:16;;;;;;;7.65;3.95;;;;;;;16.62;63.48;98307.47;2234895;79;21014;-80
2022/06/21 05:06:16;;;;;;;7.00;3.65;;;;;;;16.43;62.75;98313.08;2235601;79;20951;-80
2022/06/21 05:09:17;;;;;;;4.92;3.60;;;;;;;16.46;64.77;98311.70;2233823;79;20966;-80
2022/06/21 05:12:17;;;;;;;3.85;3.22;;;;;;;16.30;62.22;98323.44;2233841;79;21348;-81
2022/06/21 05:15:17;;;;;;;7.97;3.40;;;;;;;15.89;63.15;98319.81;2235396;79;20974;-81
2022/06/21 05:18:18;;;;;;;4.10;3.45;;;;;;;15.84;64.36;98317.70;2234766;79;20955;-81
2022/06/21 05:21:18;;;;;;;6.53;3.05;;;;;;;15.88;64.23;98329.05;2233960;79;21030;-79
2022/06/21 05:24:19;;;;;;;5.33;2.90;;;;;;;16.01;63.48;98316.09;2233377;79;21022;-83
2022/06/21 05:27:19;;;;;;;7.67;3.15;;;;;;;15.91;63.46;98319.78;2233650;79;20931;-82
2022/06/21 05:30:19;;;;;;;4.53;3.35;;;;;;;16.18;64.28;98313.14;2233601;79;20963;-80
2022/06/21 05:33:20;;;;;;;7.20;3.30;;;;;;;16.85;62.71;98319.73;2232749;79;21041;-80
2022/06/21 05:36:20;;;;;;;3.40;3.10;;;;;;;16.90;59.72;98333.69;2232795;79;20982;-82
2022/06/21 05:39:22;;;;;;;7.70;3.12;;;;;;;16.73;60.92;98314.73;2233561;78;20959;-79
2022/06/21 05:42:21;;;;;;;4.80;2.65;;;;;;;16.94;60.84;98318.22;2233687;79;20994;-80
2022/06/21 05:45:21;;;;;;;5.62;2.85;;;;;;;16.24;59.00;98320.48;2232864;79;21266;-81
2022/06/21 05:48:22;;;;;;;7.62;3.42;;;;;;;15.78;60.64;98324.84;2234990;79;20960;-80
2022/06/21 05:51:22;;;;;;;10.30;3.22;;;;;;;15.63;61.37;98345.70;2235553;79;20960;-80
2022/06/21 05:54:23;;;;;;;8.73;3.45;;;;;;;15.61;62.16;98325.13;2233849;79;21456;-81
2022/06/21 05:57:23;;;;;;;4.55;2.90;;;;;;;15.95;61.79;98329.36;2233812;79;21012;-80
2022/06/21 06:00:26;;;;;;;6.58;2.62;;;;;;;16.09;60.46;98330.42;2232604;80;21018;-82
2022/06/21 06:03:26;;;;;;;5.28;2.90;;;;;;;16.16;57.77;98326.78;2233006;79;21010;-80
2022/06/21 06:06:29;;;;;;;5.37;2.70;;;;;;;15.91;59.25;98336.45;2232543;79;21599;-82
2022/06/21 06:09:27;;;;;;;4.85;3.30;;;;;;;16.02;59.40;98333.62;2232871;80;21035;-82
2022/06/21 06:12:28;;;;;;;5.42;3.20;;;;;;;16.28;59.59;98327.87;2233329;79;20957;-80
2022/06/21 06:15:28;;;;;;;4.80;3.17;;;;;;;17.06;60.01;98323.22;2233455;79;21362;-83
2022/06/21 06:18:29;;;;;;;8.35;3.12;;;;;;;17.41;58.41;98319.80;2233072;79;21015;-81
2022/06/21 06:21:29;;;;;;;6.55;3.10;;;;;;;17.12;57.15;98324.41;2232948;80;20963;-82
2022/06/21 06:24:29;;;;;;;9.23;3.30;;;;;;;17.00;57.68;98322.04;2233422;79;20947;-79
2022/06/21 06:27:30;;;;;;;28.00;13.35;;;;;;;16.95;58.36;98323.91;2233562;79;20979;-80
2022/06/21 06:30:30;;;;;;;7.30;2.62;;;;;;;16.57;57.08;98331.28;2233604;79;21042;-82
2022/06/21 06:33:31;;;;;;;8.78;2.70;;;;;;;16.43;57.68;98336.79;2233405;79;21022;-81
2022/06/21 06:36:31;;;;;;;22.55;13.22;;;;;;;16.36;58.16;98340.89;2234068;78;20976;-82
2022/06/21 06:39:31;;;;;;;4.75;3.12;;;;;;;16.17;58.99;98348.27;2233947;79;20955;-80
2022/06/21 06:42:32;;;;;;;10.75;2.77;;;;;;;16.07;59.08;98325.64;2233484;79;21015;-81
2022/06/21 06:45:32;;;;;;;8.93;2.70;;;;;;;16.18;59.70;98332.89;2233494;79;20963;-80
2022/06/21 06:48:35;;;;;;;3.52;2.52;;;;;;;16.66;58.73;98326.30;2213019;79;20968;-83
2022/06/21 06:51:37;;;;;;;4.97;1.92;;;;;;;16.79;57.43;98335.23;2235485;79;20959;-81
2022/06/21 06:54:35;;;;;;;6.45;2.05;;;;;;;16.62;55.34;98341.27;2234383;79;21027;-79
2022/06/21 06:57:36;;;;;;;9.58;2.20;;;;;;;16.70;55.58;98336.75;2234880;79;20928;-83
2022/06/21 07:00:36;;;;;;;5.75;1.90;;;;;;;16.67;55.96;98344.72;2234721;79;21632;-81
2022/06/21 07:03:37;;;;;;;7.67;2.40;;;;;;;16.61;56.08;98321.55;2234211;80;21019;-80
2022/06/21 07:06:37;;;;;;;8.55;2.50;;;;;;;16.57;57.94;98328.64;2234261;79;20936;-80
2022/06/21 07:09:37;;;;;;;3.92;2.35;;;;;;;16.36;57.43;98332.54;2233854;79;21554;-81
2022/06/21 07:12:38;;;;;;;7.55;2.47;;;;;;;16.52;57.94;98335.32;2233522;79;20990;-81
2022/06/21 07:15:39;;;;;;;4.35;2.70;;;;;;;16.93;60.40;98332.75;2232603;80;21296;-81
2022/06/21 07:18:39;;;;;;;6.72;2.10;;;;;;;17.45;55.80;98337.74;2234072;79;20966;-81
2022/06/21 07:21:40;;;;;;;4.85;1.90;;;;;;;17.31;54.58;98345.08;2233705;78;20983;-82
2022/06/21 07:24:40;;;;;;;6.90;1.85;;;;;;;17.29;52.77;98347.75;2234370;79;21311;-81
2022/06/21 07:27:40;;;;;;;4.50;3.00;;;;;;;17.21;53.67;98336.52;2234046;79;20963;-83
2022/06/21 07:30:41;;;;;;;9.80;3.37;;;;;;;17.49;51.99;98339.41;2233766;80;21229;-82
2022/06/21 07:33:41;;;;;;;2.30;2.10;;;;;;;16.99;52.49;98351.94;2235258;80;21015;-82
2022/06/21 07:36:43;;;;;;;6.22;2.05;;;;;;;16.36;54.09;98344.39;2234885;79;21685;-81
2022/06/21 07:39:42;;;;;;;3.22;2.00;;;;;;;16.30;56.17;98341.88;2235289;79;21034;-78
2022/06/21 07:42:42;;;;;;;6.67;1.98;;;;;;;16.44;56.20;98346.42;2234307;80;20988;-80
2022/06/21 07:45:43;;;;;;;3.47;1.57;;;;;;;16.47;55.69;98350.77;2233660;79;21470;-81
2022/06/21 07:48:43;;;;;;;7.03;1.60;;;;;;;17.09;52.54;98358.75;2234189;79;20928;-81
2022/06/21 07:51:43;;;;;;;3.87;1.60;;;;;;;17.09;52.49;98344.70;2234237;79;21010;-81
2022/06/21 07:54:44;;;;;;;6.72;1.50;;;;;;;17.31;51.99;98347.72;2234119;78;20947;-80
2022/06/21 07:57:44;;;;;;;5.92;2.62;;;;;;;17.17;53.29;98343.62;2233712;79;20979;-78
2022/06/21 08:07:23;;;;;;;6.12;2.17;;;;;;;16.30;56.10;98356.81;2233127;80;21789;-80
2022/06/21 08:10:23;;;;;;;3.65;1.90;;;;;;;16.42;56.35;98356.13;2234192;80;21014;-81
2022/06/21 08:13:24;;;;;;;4.30;2.25;;;;;;;17.16;54.72;98355.53;2234036;79;20983;-83
2022/06/21 08:16:24;;;;;;;2.92;1.90;;;;;;;17.05;53.95;98343.90;2233305;79;20999;-81
2022/06/21 08:19:24;;;;;;;3.80;1.72;;;;;;;17.10;53.93;98353.89;2232898;79;21358;-81
2022/06/21 08:22:25;;;;;;;1.77;1.52;;;;;;;17.66;53.40;98347.81;2233125;80;21403;-79
2022/06/21 08:25:25;;;;;;;5.72;1.82;;;;;;;17.81;52.33;98343.92;2231908;80;21410;-80
2022/06/21 08:28:26;;;;;;;15.53;2.00;;;;;;;17.20;50.31;98363.78;2233088;79;20955;-81
2022/06/21 08:31:26;;;;;;;1.95;1.10;;;;;;;17.30;50.35;98352.13;2233460;79;21361;-81
2022/06/21 08:34:27;;;;;;;3.77;1.20;;;;;;;17.55;49.33;98355.55;2232895;79;21003;-80
2022/06/21 08:37:27;;;;;;;5.17;1.20;;;;;;;17.37;49.27;98359.03;2231880;79;21021;-81
2022/06/21 08:40:27;;;;;;;4.37;1.80;;;;;;;17.10;50.17;98359.17;2231406;79;21027;-78
2022/06/21 08:43:28;;;;;;;3.52;1.30;;;;;;;16.86;51.27;98363.20;2206958;79;21012;-81
2022/06/21 08:46:28;;;;;;;3.62;1.32;;;;;;;16.67;52.26;98362.30;2205901;79;21039;-80
2022/06/21 08:49:30;;;;;;;3.62;1.87;;;;;;;16.38;53.69;98364.98;2205135;79;21042;-80
2022/06/21 08:52:32;;;;;;;3.15;1.87;;;;;;;16.16;54.14;98361.87;2192312;81;21060;-80
2022/06/21 08:55:32;;;;;;;1.42;1.30;;;;;;;16.08;54.39;98376.08;2205806;79;21015;-80
2022/06/21 08:58:32;;;;;;;5.15;1.65;;;;;;;16.42;53.81;98381.59;2204964;79;20968;-81
2022/06/21 09:01:33;;;;;;;2.15;1.40;;;;;;;16.95;52.98;98370.05;2205075;80;20996;-81
2022/06/21 09:04:33;;;;;;;4.17;1.50;;;;;;;17.32;52.41;98388.57;2205346;79;20988;-81
2022/06/21 09:07:34;;;;;;;3.50;1.50;;;;;;;17.39;51.64;98399.44;2205646;79;20988;-80
2022/06/21 09:10:34;;;;;;;6.15;1.30;;;;;;;17.03;51.68;98385.25;2205301;79;21726;-80
2022/06/21 09:13:34;;;;;;;3.58;1.57;;;;;;;16.83;52.72;98379.53;2205657;79;20968;-81
2022/06/21 09:16:35;;;;;;;6.10;1.57;;;;;;;16.91;53.04;98379.37;2205824;81;21035;-81
2022/06/21 09:19:35;;;;;;;10.90;1.67;;;;;;;17.01;53.02;98379.14;2206403;79;21752;-81
2022/06/21 09:22:36;;;;;;;4.80;1.40;;;;;;;17.18;53.64;98374.82;2205543;79;21428;-78
2022/06/21 09:25:36;;;;;;;2.52;1.37;;;;;;;17.39;53.43;98370.41;2204411;81;21011;-81
2022/06/21 09:28:37;;;;;;;2.85;1.72;;;;;;;17.67;52.30;98369.80;2206425;79;21039;-80
2022/06/21 09:31:38;;;;;;;5.53;1.47;;;;;;;17.63;52.05;98372.93;2206667;79;21420;-80
2022/06/21 09:34:37;;;;;;;1.82;1.32;;;;;;;17.39;52.14;98366.91;2206232;79;21328;-80
2022/06/21 09:37:38;;;;;;;2.08;1.60;;;;;;;17.05;52.69;98378.17;2205427;79;21028;-80
2022/06/21 09:40:38;;;;;;;4.55;1.62;;;;;;;16.94;53.79;98373.58;2206626;81;21020;-80
2022/06/21 09:43:39;;;;;;;4.80;1.10;;;;;;;16.74;54.16;98369.17;2230109;79;21007;-81
2022/06/21 09:46:39;;;;;;;8.20;1.65;;;;;;;16.48;54.92;98370.53;2233030;79;21038;-81
2022/06/21 09:49:40;;;;;;;8.40;2.25;;;;;;;16.10;54.99;98372.97;2232833;79;21378;-83
2022/06/21 09:52:40;;;;;;;6.37;1.80;;;;;;;15.97;56.03;98374.08;2233028;79;20982;-81
2022/06/21 09:55:40;;;;;;;6.35;1.57;;;;;;;16.02;56.70;98378.37;2233099;79;20971;-80
2022/06/21 09:58:41;;;;;;;3.08;1.42;;;;;;;16.36;56.33;98382.58;2232873;80;21401;-80
2022/06/21 10:01:41;;;;;;;3.02;1.42;;;;;;;16.79;54.67;98377.86;2233148;79;20951;-81
2022/06/21 10:04:41;;;;;;;2.95;1.60;;;;;;;16.98;54.46;98386.25;2233011;79;21292;-80
2022/06/21 10:07:44;;;;;;;2.10;1.45;;;;;;;16.66;53.99;98385.59;2232893;79;21006;-82
2022/06/21 10:10:45;;;;;;;4.35;1.55;;;;;;;16.24;55.07;98367.88;2233136;79;21002;-80
2022/06/21 10:13:43;;;;;;;5.05;1.35;;;;;;;16.05;56.00;98378.77;2233292;79;21015;-80
2022/06/21 10:16:43;;;;;;;3.95;1.60;;;;;;;15.96;55.97;98381.11;2232340;79;21046;-78
2022/06/21 10:19:43;;;;;;;13.70;3.12;;;;;;;16.17;56.42;98383.37;2232141;79;20990;-81
2022/06/21 10:22:44;;;;;;;23.38;3.45;;;;;;;16.29;54.87;98396.77;2231785;79;20975;-81
2022/06/21 10:25:44;;;;;;;13.43;1.80;;;;;;;16.49;54.50;98407.83;2233521;79;20979;-78
2022/06/21 10:28:45;;;;;;;3.75;1.30;;;;;;;16.71;53.98;98407.45;2232722;79;21245;-83
2022/06/21 10:31:45;;;;;;;8.90;1.70;;;;;;;17.02;53.76;98382.20;2234127;79;21262;-81
2022/06/21 10:34:45;;;;;;;6.47;1.75;;;;;;;16.92;53.00;98401.75;2234414;79;20999;-81
2022/06/21 10:37:46;;;;;;;2.47;1.35;;;;;;;16.66;54.09;98394.37;2233712;79;20978;-82
2022/06/21 10:40:46;;;;;;;4.22;1.77;;;;;;;16.58;54.43;98387.02;2233462;79;20994;-81
2022/06/21 10:43:47;;;;;;;4.30;1.70;;;;;;;16.55;55.41;98395.86;2210870;79;21318;-82
2022/06/21 10:46:50;;;;;;;3.58;1.72;;;;;;;16.53;56.18;98381.84;2206980;81;21402;-81
2022/06/21 10:49:51;;;;;;;3.02;2.08;;;;;;;16.35;56.72;98391.38;2207962;79;20996;-80
2022/06/21 10:52:51;;;;;;;3.90;1.85;;;;;;;16.06;58.62;98413.41;2206774;79;20995;-81
2022/06/21 10:57:08;;;;;;;3.37;1.98;;;;;;;16.14;59.01;98414.15;2206672;79;20967;-80
2022/06/21 10:58:52;;;;;;;4.72;2.33;;;;;;;16.07;58.89;98402.85;2206361;79;21211;-81
2022/06/21 11:01:52;;;;;;;2.77;1.82;;;;;;;15.87;60.74;98409.77;2206135;79;21781;-80
2022/06/21 11:04:53;;;;;;;1.90;1.67;;;;;;;15.82;61.50;98406.79;2206263;79;20992;-82
2022/06/21 11:07:55;;;;;;;4.22;2.40;;;;;;;15.88;61.80;98402.30;2206539;79;21003;-82
2022/06/21 11:10:56;;;;;;;1.92;1.70;;;;;;;15.97;62.02;98405.67;2193069;80;21070;-82
2022/06/21 11:13:56;;;;;;;4.10;1.65;;;;;;;16.50;60.21;98389.81;2206414;79;21348;-80
2022/06/21 11:16:56;;;;;;;9.28;2.02;;;;;;;17.04;58.58;98400.17;2207012;79;21102;-80
2022/06/21 11:19:57;;;;;;;4.67;1.70;;;;;;;17.51;58.03;98399.61;2205900;79;20924;-80
2022/06/21 11:22:57;;;;;;;3.50;1.52;;;;;;;17.87;56.02;98414.19;2203924;81;21443;-80
2022/06/21 11:25:58;;;;;;;3.87;1.85;;;;;;;18.17;54.70;98402.00;2205108;79;21012;-80
2022/06/21 11:28:58;;;;;;;1.90;1.50;;;;;;;18.57;52.78;98397.88;2205818;79;21392;-81
2022/06/21 11:31:59;;;;;;;3.52;1.47;;;;;;;19.14;50.56;98402.48;2206604;81;20952;-80
2022/06/21 11:34:59;;;;;;;8.25;1.70;;;;;;;19.40;47.68;98394.63;2206970;79;20988;-82
2022/06/21 11:37:59;;;;;;;3.58;2.00;;;;;;;19.16;48.65;98412.11;2206504;79;20948;-80
2022/06/21 11:40:59;;;;;;;7.17;1.42;;;;;;;19.39;48.82;98412.75;2206570;81;20948;-80
2022/06/21 11:44:00;;;;;;;3.92;1.87;;;;;;;19.53;48.48;98387.20;2228693;79;21042;-81
2022/06/21 11:47:00;;;;;;;3.42;1.42;;;;;;;19.58;46.14;98406.46;2233014;79;20996;-80
2022/06/21 11:50:01;;;;;;;6.28;1.70;;;;;;;19.78;46.54;98400.53;2232998;79;21018;-77
2022/06/21 11:53:01;;;;;;;1.87;1.30;;;;;;;19.77;45.72;98419.98;2232057;79;21022;-81
2022/06/21 11:56:02;;;;;;;3.35;1.30;;;;;;;19.57;46.02;98398.98;2233368;79;20999;-80
2022/06/21 11:59:02;;;;;;;3.37;1.30;;;;;;;19.49;45.25;98416.84;2233276;79;20983;-81
2022/06/21 12:02:02;;;;;;;2.17;1.25;;;;;;;19.56;46.16;98421.06;2233668;79;21017;-81
2022/06/21 12:05:03;;;;;;;3.65;1.52;;;;;;;19.76;46.23;98399.26;2233869;79;20951;-79
2022/06/21 12:08:03;;;;;;;1.70;1.17;;;;;;;19.60;46.50;98408.60;2233008;79;21391;-79
2022/06/21 12:11:04;;;;;;;4.78;1.17;;;;;;;19.32;46.63;98418.68;2232538;79;20964;-81
2022/06/21 12:14:04;;;;;;;1.45;1.10;;;;;;;18.84;46.11;98424.91;2233434;79;20983;-79
2022/06/21 12:17:04;;;;;;;6.33;1.10;;;;;;;18.82;46.44;98412.19;2234390;78;21229;-78
2022/06/21 12:20:05;;;;;;;3.35;1.47;;;;;;;19.34;45.54;98412.02;2232997;79;21355;-80
2022/06/21 12:23:05;;;;;;;3.65;1.10;;;;;;;19.96;46.28;98406.59;2233025;79;20991;-80
2022/06/21 12:26:06;;;;;;;2.17;1.10;;;;;;;20.30;42.60;98407.65;2232248;80;21059;-79
2022/06/21 12:29:07;;;;;;;3.20;1.10;;;;;;;20.24;43.91;98391.95;2230594;79;21406;-80
2022/06/21 12:32:07;;;;;;;1.70;1.10;;;;;;;20.49;43.00;98404.80;2232411;79;21390;-80
2022/06/21 12:35:07;;;;;;;1.52;1.20;;;;;;;20.49;42.18;98384.05;2232699;80;20963;-80
2022/06/21 12:38:07;;;;;;;3.62;1.12;;;;;;;20.29;42.99;98397.97;2232981;79;20986;-80
2022/06/21 12:41:08;;;;;;;6.53;1.30;;;;;;;19.57;43.22;98390.16;2233279;79;20950;-81
2022/06/21 12:44:08;;;;;;;1.62;1.22;;;;;;;19.45;44.91;98372.86;2212559;79;21062;-80
2022/06/21 12:47:09;;;;;;;6.08;1.10;;;;;;;19.64;44.27;98364.77;2205943;79;20999;-81
2022/06/21 12:50:09;;;;;;;3.08;1.72;;;;;;;19.89;44.35;98378.53;2205237;79;21011;-82
2022/06/21 12:53:09;;;;;;;2.92;0.95;;;;;;;19.80;44.30;98390.30;2205660;79;20976;-80
2022/06/21 12:56:10;;;;;;;1.72;1.10;;;;;;;19.68;44.44;98366.41;2205689;81;21464;-80
2022/06/21 12:59:10;;;;;;;1.05;0.80;;;;;;;19.50;45.45;98378.88;2206201;79;20980;-79
2022/06/21 13:02:11;;;;;;;4.37;1.30;;;;;;;19.33;45.64;98382.50;2205885;79;21027;-79
2022/06/21 13:05:11;;;;;;;3.85;1.17;;;;;;;18.97;45.66;98381.33;2207352;79;21399;-81
2022/06/21 13:08:11;;;;;;;8.70;1.57;;;;;;;19.22;46.14;98376.21;2206351;79;21379;-80
2022/06/21 13:11:14;;;;;;;3.20;1.25;;;;;;;19.82;46.21;98359.33;2206286;79;20960;-76
2022/06/21 13:14:12;;;;;;;2.85;1.10;;;;;;;20.23;43.60;98348.69;2202971;79;20984;-78
2022/06/21 13:17:13;;;;;;;6.90;1.40;;;;;;;20.10;44.47;98355.33;2206223;79;21027;-81
2022/06/21 13:20:13;;;;;;;8.20;1.50;;;;;;;20.31;42.95;98355.91;2207580;79;21921;-81
2022/06/21 13:23:13;;;;;;;4.28;1.10;;;;;;;20.37;42.52;98366.76;2206788;79;20984;-81
2022/06/21 13:26:14;;;;;;;1.67;1.07;;;;;;;20.20;43.46;98375.75;2208238;79;21071;-81
2022/06/21 13:29:14;;;;;;;3.50;1.40;;;;;;;19.95;43.34;98375.72;2207701;79;21003;-80
2022/06/21 13:32:15;;;;;;;3.55;1.50;;;;;;;19.65;45.00;98377.55;2207103;79;21047;-81
2022/06/21 13:35:15;;;;;;;4.72;1.30;;;;;;;19.66;45.37;98381.94;2208736;79;20929;-81
2022/06/21 13:38:15;;;;;;;2.70;1.40;;;;;;;19.37;44.61;98389.43;2207729;79;21632;-80
2022/06/21 13:42:37;;;;;;;3.92;1.30;;;;;;;19.06;46.20;98400.03;2207093;79;21004;-80
2022/06/21 13:44:16;;;;;;;3.62;1.40;;;;;;;19.25;46.07;98399.06;2228586;79;21003;-80
2022/06/21 13:47:17;;;;;;;3.87;1.52;;;;;;;19.55;46.13;98395.51;2234597;79;21425;-80
2022/06/21 13:50:17;;;;;;;2.17;1.22;;;;;;;19.72;45.95;98390.55;2233383;79;21114;-80
2022/06/21 13:53:17;;;;;;;4.83;1.50;;;;;;;19.56;44.01;98395.05;2233746;79;20951;-80
2022/06/21 13:56:18;;;;;;;4.50;1.50;;;;;;;19.30;44.71;98402.44;2234089;79;21581;-80
2022/06/21 13:59:18;;;;;;;4.08;1.65;;;;;;;19.41;45.03;98386.64;2232379;78;21279;-78
2022/06/21 14:02:19;;;;;;;3.40;1.45;;;;;;;19.42;45.57;98392.80;2233856;79;21003;-78
2022/06/21 14:05:19;;;;;;;6.53;1.57;;;;;;;19.24;45.40;98395.55;2235144;79;20928;-80
2022/06/21 14:08:19;;;;;;;54.10;3.30;;;;;;;19.19;45.70;98406.73;2235048;79;20955;-77
2022/06/21 14:11:20;;;;;;;1.67;1.02;;;;;;;19.43;44.38;98402.93;2232606;79;20982;-79
2022/06/21 14:14:20;;;;;;;1.95;1.10;;;;;;;19.71;43.87;98393.24;2233888;79;20958;-79